createdAt,value
2022-12-07T00:02:10.461Z,-5.81
2022-12-07T00:04:43.474Z,-5.86
2022-12-07T00:07:16.529Z,-5.89
2022-12-07T00:09:49.355Z,-5.92
2022-12-07T00:12:22.534Z,-5.92
2022-12-07T00:14:55.639Z,-5.90
2022-12-07T00:17:28.784Z,-5.94
2022-12-07T00:20:02.392Z,-5.92
2022-12-07T00:22:35.757Z,-5.89
2022-12-07T00:25:10.381Z,-5.89
2022-12-07T00:27:43.394Z,-5.86
2022-12-07T00:30:17.760Z,-5.92
2022-12-07T00:32:50.599Z,-5.97
2022-12-07T00:35:23.541Z,-6.01
2022-12-07T00:37:57.054Z,-6.01
2022-12-07T00:40:31.920Z,-6.05
2022-12-07T00:43:05.436Z,-6.05
2022-12-07T00:45:38.699Z,-6.04
2022-12-07T00:48:11.782Z,-6.03
2022-12-07T00:50:44.982Z,-6.00
2022-12-07T00:53:18.825Z,-5.95
2022-12-07T00:55:53.574Z,-5.90
2022-12-07T00:58:26.983Z,-5.95
2022-12-07T01:01:03.751Z,-6.02
2022-12-07T01:03:37.075Z,-6.04
2022-12-07T01:06:10.015Z,-6.04
2022-12-07T01:08:43.181Z,-6.05
2022-12-07T01:11:19.703Z,-6.01
2022-12-07T01:13:55.171Z,-6.04
2022-12-07T01:16:30.709Z,-6.03
2022-12-07T01:19:06.012Z,-6.07
2022-12-07T01:21:40.422Z,-6.10
2022-12-07T01:24:15.011Z,-6.12
2022-12-07T01:26:48.057Z,-6.15
2022-12-07T01:29:21.077Z,-6.16
2022-12-07T01:31:54.044Z,-6.23
2022-12-07T01:34:27.132Z,-6.31
2022-12-07T01:37:00.216Z,-6.35
2022-12-07T01:39:33.020Z,-6.39
2022-12-07T01:42:06.345Z,-6.40
2022-12-07T01:45:15.217Z,-6.49
2022-12-07T01:47:51.182Z,-6.52
2022-12-07T01:50:26.846Z,-6.61
2022-12-07T01:53:01.598Z,-6.67
2022-12-07T01:55:35.065Z,-6.68
2022-12-07T01:58:09.065Z,-6.72
2022-12-07T02:00:43.536Z,-6.80
2022-12-07T02:03:20.384Z,-6.86
2022-12-07T02:05:55.669Z,-6.96
2022-12-07T02:08:29.540Z,-7.03
2022-12-07T02:11:03.836Z,-7.08
2022-12-07T02:13:39.349Z,-7.06
2022-12-07T02:16:23.019Z,-7.03
2022-12-07T02:19:04.209Z,-7.02
2022-12-07T02:21:41.218Z,-7.03
2022-12-07T02:24:21.569Z,-7.08
2022-12-07T02:27:31.638Z,-7.11
2022-12-07T02:30:07.227Z,-7.19
2022-12-07T02:32:50.726Z,-7.27
2022-12-07T02:35:26.602Z,-7.30
2022-12-07T02:38:04.577Z,-7.34
2022-12-07T02:40:40.832Z,-7.33
2022-12-07T02:43:16.899Z,-7.26
2022-12-07T02:45:50.488Z,-7.30
2022-12-07T02:48:25.258Z,-7.26
2022-12-07T02:50:58.638Z,-7.28
2022-12-07T02:53:39.725Z,-7.26
2022-12-07T02:56:28.138Z,-7.28
2022-12-07T02:58:58.993Z,-7.31
2022-12-07T03:01:35.802Z,-7.42
2022-12-07T03:04:13.451Z,-7.53
2022-12-07T03:06:49.624Z,-7.56
2022-12-07T03:09:33.312Z,-7.61
2022-12-07T03:12:10.617Z,-7.66
2022-12-07T03:14:46.635Z,-7.69
2022-12-07T03:17:22.470Z,-7.74
2022-12-07T03:19:58.332Z,-7.77
2022-12-07T03:22:34.207Z,-7.80
2022-12-07T03:25:12.950Z,-7.86
2022-12-07T03:30:32.347Z,-7.90
2022-12-07T03:33:08.363Z,-8.04
2022-12-07T03:35:44.535Z,-8.07
2022-12-07T03:38:21.131Z,-8.09
2022-12-07T03:40:57.627Z,-8.15
2022-12-07T03:43:32.167Z,-8.15
2022-12-07T03:46:10.556Z,-8.18
2022-12-07T03:48:46.537Z,-8.24
2022-12-07T03:51:22.416Z,-8.25
2022-12-07T03:53:58.394Z,-8.28
2022-12-07T03:56:33.226Z,-8.33
2022-12-07T03:59:06.237Z,-8.41
2022-12-07T04:01:39.599Z,-8.39
2022-12-07T04:04:12.766Z,-8.36
2022-12-07T04:06:45.797Z,-8.33
2022-12-07T04:09:19.084Z,-8.38
2022-12-07T04:11:52.188Z,-8.40
2022-12-07T04:14:25.683Z,-8.43
2022-12-07T04:17:00.692Z,-8.39
2022-12-07T04:19:36.067Z,-8.40
2022-12-07T04:22:09.983Z,-8.44
2022-12-07T04:24:43.085Z,-8.45
2022-12-07T04:27:16.337Z,-8.50
2022-12-07T04:29:49.454Z,-8.50
2022-12-07T04:32:22.324Z,-8.52
2022-12-07T04:34:56.121Z,-8.57
2022-12-07T04:37:29.456Z,-8.58
2022-12-07T04:40:03.122Z,-8.60
2022-12-07T04:42:53.641Z,-8.61
2022-12-07T04:46:20.715Z,-8.64
2022-12-07T04:49:29.021Z,-8.70
2022-12-07T04:52:55.196Z,-8.78
2022-12-07T04:56:21.015Z,-8.85
2022-12-07T04:59:30.349Z,-8.91
2022-12-07T05:02:56.265Z,-8.99
2022-12-07T05:05:46.267Z,-9.08
2022-12-07T05:09:12.712Z,-9.11
2022-12-07T05:12:20.982Z,-9.16
2022-12-07T05:15:29.514Z,-9.20
2022-12-07T05:18:57.217Z,-9.23
2022-12-07T05:22:23.412Z,-9.18
2022-12-07T05:25:31.192Z,-9.25
2022-12-07T05:28:39.891Z,-9.24
2022-12-07T05:32:06.287Z,-9.32
2022-12-07T05:34:56.905Z,-9.34
2022-12-07T05:38:25.436Z,-9.36
2022-12-07T05:41:53.399Z,-9.36
2022-12-07T05:45:20.219Z,-9.42
2022-12-07T05:48:10.471Z,-9.42
2022-12-07T05:51:19.821Z,-9.41
2022-12-07T05:54:10.082Z,-9.40
2022-12-07T05:57:36.276Z,-9.38
2022-12-07T06:00:28.152Z,-9.37
2022-12-07T06:03:54.107Z,-9.37
2022-12-07T06:07:02.555Z,-9.35
2022-12-07T06:10:28.549Z,-9.38
2022-12-07T06:14:11.699Z,-9.39
2022-12-07T06:17:03.165Z,-9.43
2022-12-07T06:19:36.707Z,-9.35
2022-12-07T06:22:11.608Z,-8.85
2022-12-07T06:24:45.026Z,-8.31
2022-12-07T06:27:18.538Z,-7.73
2022-12-07T06:29:51.653Z,-7.22
2022-12-07T06:32:24.480Z,-6.84
2022-12-07T06:34:57.467Z,-6.53
2022-12-07T06:37:30.356Z,-6.33
2022-12-07T06:40:03.605Z,-6.05
2022-12-07T06:42:36.872Z,-5.83
2022-12-07T06:45:11.509Z,-5.61
2022-12-07T06:47:44.803Z,-5.24
2022-12-07T06:50:19.073Z,-4.88
2022-12-07T06:52:52.910Z,-4.46
2022-12-07T06:56:18.629Z,-4.39
2022-12-07T06:59:10.192Z,-4.42
2022-12-07T07:01:43.466Z,-4.10
2022-12-07T07:04:16.855Z,-3.78
2022-12-07T07:06:52.884Z,-3.75
2022-12-07T07:09:24.967Z,-3.31
2022-12-07T07:11:58.221Z,-3.28
2022-12-07T07:14:31.420Z,-3.41
2022-12-07T07:17:04.447Z,-3.50
2022-12-07T07:19:38.388Z,-3.72
2022-12-07T07:22:11.472Z,-3.73
2022-12-07T07:24:44.655Z,-3.45
2022-12-07T07:27:17.788Z,-3.25
2022-12-07T07:29:50.865Z,-3.47
2022-12-07T07:32:23.884Z,-3.69
2022-12-07T07:34:56.973Z,-3.40
2022-12-07T07:37:30.137Z,-3.41
2022-12-07T07:40:03.928Z,-3.09
2022-12-07T07:42:37.190Z,-2.57
2022-12-07T07:45:12.447Z,-2.59
2022-12-07T07:47:45.807Z,-2.42
2022-12-07T07:50:20.248Z,-2.18
2022-12-07T07:52:54.006Z,-2.05
2022-12-07T07:55:27.236Z,-1.96
2022-12-07T07:58:00.271Z,-2.03
2022-12-07T08:00:33.734Z,-2.01
2022-12-07T08:03:06.843Z,-1.63
2022-12-07T08:05:41.549Z,-1.39
2022-12-07T08:08:14.719Z,-1.50
2022-12-07T08:10:47.936Z,-1.65
2022-12-07T08:13:24.834Z,-1.07
2022-12-07T08:15:56.228Z,-0.88
2022-12-07T08:18:29.378Z,-0.93
2022-12-07T08:21:03.762Z,-1.07
2022-12-07T08:23:39.710Z,-1.10
2022-12-07T08:26:14.297Z,-0.81
2022-12-07T08:28:47.542Z,-0.55
2022-12-07T08:31:21.571Z,-0.29
2022-12-07T08:33:54.602Z,-0.26
2022-12-07T08:36:28.868Z,-0.12
2022-12-07T08:39:30.370Z,-0.38
2022-12-07T08:41:36.632Z,-0.20
2022-12-07T08:44:09.861Z,0.11
2022-12-07T08:46:46.542Z,0.31
2022-12-07T08:49:22.539Z,0.13
2022-12-07T08:51:57.212Z,0.18
2022-12-07T08:54:31.671Z,-0.18
2022-12-07T08:57:05.281Z,0.03
2022-12-07T08:59:39.601Z,0.40
2022-12-07T09:02:12.457Z,0.47
2022-12-07T09:04:45.488Z,0.67
2022-12-07T09:07:18.821Z,0.28
2022-12-07T09:09:52.023Z,0.33
2022-12-07T09:12:25.195Z,0.54
2022-12-07T09:14:59.623Z,0.43
2022-12-07T09:17:37.048Z,0.53
2022-12-07T09:20:12.846Z,0.88
2022-12-07T09:22:46.041Z,0.90
2022-12-07T09:25:19.521Z,0.78
2022-12-07T09:27:58.972Z,0.43
2022-12-07T09:30:32.379Z,0.49
2022-12-07T09:33:05.401Z,0.97
2022-12-07T09:35:38.457Z,1.09
2022-12-07T09:38:11.744Z,1.49
2022-12-07T09:40:45.484Z,1.49
2022-12-07T09:43:21.637Z,1.70
2022-12-07T09:45:57.510Z,1.64
2022-12-07T09:48:33.427Z,1.44
2022-12-07T09:51:18.033Z,1.48
2022-12-07T09:53:49.246Z,1.05
2022-12-07T09:56:24.541Z,0.88
2022-12-07T09:59:01.309Z,0.78
2022-12-07T10:01:36.472Z,0.84
2022-12-07T10:04:15.415Z,1.12
2022-12-07T10:06:49.476Z,1.95
2022-12-07T10:09:25.663Z,2.11
2022-12-07T10:12:10.463Z,2.54
2022-12-07T10:15:06.930Z,1.84
2022-12-07T10:17:41.970Z,1.27
2022-12-07T10:20:25.260Z,1.42
2022-12-07T10:23:04.010Z,1.95
2022-12-07T10:25:40.851Z,2.96
2022-12-07T10:28:18.009Z,3.52
2022-12-07T10:30:54.093Z,3.11
2022-12-07T10:33:42.131Z,2.88
2022-12-07T10:36:24.118Z,3.48
2022-12-07T10:39:03.032Z,3.37
2022-12-07T10:41:35.950Z,3.46
2022-12-07T10:44:11.820Z,3.98
2022-12-07T10:47:09.997Z,3.76
2022-12-07T10:53:17.632Z,2.19
2022-12-07T10:56:00.854Z,2.14
2022-12-07T10:58:46.300Z,2.27
2022-12-07T11:01:23.311Z,2.18
2022-12-07T11:04:11.569Z,1.44
2022-12-07T11:06:48.040Z,1.60
2022-12-07T11:12:30.307Z,1.04
2022-12-07T11:15:06.474Z,0.78
2022-12-07T11:17:43.321Z,0.32
2022-12-07T11:20:24.084Z,-0.15
2022-12-07T11:23:00.699Z,-0.39
2022-12-07T11:25:37.299Z,-0.31
2022-12-07T11:28:21.422Z,-0.19
2022-12-07T11:30:58.734Z,-0.03
2022-12-07T11:33:35.924Z,-0.25
2022-12-07T11:36:13.139Z,-0.32
2022-12-07T11:38:49.270Z,-0.49
2022-12-07T11:41:25.164Z,-0.58
2022-12-07T11:44:01.151Z,-0.68
2022-12-07T11:46:40.749Z,-0.38
2022-12-07T11:49:18.259Z,-0.25
2022-12-07T11:51:54.326Z,-0.46
2022-12-07T11:54:31.001Z,-0.82
2022-12-07T11:57:07.152Z,-0.70
2022-12-07T11:59:44.057Z,-1.00
2022-12-07T12:02:19.576Z,-1.76
2022-12-07T12:04:57.650Z,-2.10
2022-12-07T12:10:09.676Z,-2.49
2022-12-07T12:15:57.246Z,-2.87
2022-12-07T12:19:06.040Z,-3.17
2022-12-07T12:21:40.571Z,-3.37
2022-12-07T12:24:16.685Z,-3.56
2022-12-07T12:26:55.880Z,-3.56
2022-12-07T12:29:31.776Z,-3.94
2022-12-07T12:32:21.130Z,-4.03
2022-12-07T12:35:08.029Z,-4.24
2022-12-07T12:37:46.603Z,-4.48
2022-12-07T12:43:50.359Z,-5.01
2022-12-07T12:46:51.320Z,-5.36
2022-12-07T12:50:10.999Z,-5.71
2022-12-07T12:53:16.979Z,-5.94
2022-12-07T12:56:17.608Z,-6.35
2022-12-07T12:58:51.453Z,-6.61
2022-12-07T13:01:53.399Z,-7.00
2022-12-07T13:05:00.277Z,-7.18
2022-12-07T13:10:56.146Z,-7.22
2022-12-07T13:13:39.831Z,-7.40
2022-12-07T13:16:41.638Z,-7.47
2022-12-07T13:20:05.770Z,-7.60
2022-12-07T13:22:51.171Z,-7.74
2022-12-07T13:25:34.854Z,-7.85
2022-12-07T13:28:14.231Z,-7.88
2022-12-07T13:31:17.376Z,-7.91
2022-12-07T13:33:50.795Z,-8.03
2022-12-07T13:36:26.701Z,-8.05
2022-12-07T13:39:01.741Z,-8.12
2022-12-07T13:41:34.699Z,-8.13
2022-12-07T13:44:13.099Z,-8.16
2022-12-07T13:46:52.074Z,-8.19
2022-12-07T13:49:27.678Z,-8.19
2022-12-07T13:52:17.665Z,-8.15
2022-12-07T13:54:53.465Z,-8.16
2022-12-07T13:57:29.197Z,-8.22
2022-12-07T14:00:02.977Z,-8.19
2022-12-07T14:02:44.074Z,-8.17
2022-12-07T14:05:17.416Z,-8.27
2022-12-07T14:07:57.864Z,-8.31
2022-12-07T14:10:33.101Z,-8.34
2022-12-07T14:13:20.948Z,-8.39
2022-12-07T14:15:54.323Z,-8.39
2022-12-07T14:18:31.715Z,-8.42
2022-12-07T14:21:09.910Z,-8.45
2022-12-07T14:23:43.739Z,-8.43
2022-12-07T14:26:18.690Z,-8.44
2022-12-07T14:28:51.405Z,-8.55
2022-12-07T14:31:30.840Z,-8.56
2022-12-07T14:34:03.588Z,-8.51
2022-12-07T14:36:36.827Z,-8.56
2022-12-07T14:39:13.261Z,-8.56
2022-12-07T14:41:53.855Z,-8.54
2022-12-07T14:44:32.383Z,-8.58
2022-12-07T14:49:36.809Z,-8.67
2022-12-07T14:54:48.803Z,-8.61
2022-12-07T14:57:21.751Z,-8.67
2022-12-07T14:59:54.993Z,-8.68
2022-12-07T15:02:27.783Z,-8.73
2022-12-07T15:05:01.029Z,-8.73
2022-12-07T15:07:34.712Z,-8.74
2022-12-07T15:10:11.135Z,-8.72
2022-12-07T15:12:44.290Z,-8.78
2022-12-07T15:15:18.441Z,-8.83
2022-12-07T15:17:53.879Z,-8.83
2022-12-07T15:20:26.870Z,-8.75
2022-12-07T15:22:59.880Z,-8.86
2022-12-07T15:25:33.205Z,-8.81
2022-12-07T15:28:07.074Z,-8.90
2022-12-07T15:30:43.968Z,-8.91
2022-12-07T15:33:17.588Z,-8.88
2022-12-07T15:35:50.678Z,-8.87
2022-12-07T15:38:40.756Z,-8.93
2022-12-07T15:40:59.356Z,-8.97
2022-12-07T15:43:49.950Z,-8.99
2022-12-07T15:46:23.170Z,-9.01
2022-12-07T15:48:56.240Z,-9.04
2022-12-07T15:51:29.236Z,-8.99
2022-12-07T15:54:02.469Z,-9.06
2022-12-07T15:56:35.659Z,-9.04
2022-12-07T15:59:08.910Z,-9.10
2022-12-07T16:01:42.131Z,-9.00
2022-12-07T16:04:15.505Z,-9.11
2022-12-07T16:06:48.690Z,-9.06
2022-12-07T16:09:21.936Z,-9.12
2022-12-07T16:11:55.170Z,-9.12
2022-12-07T16:14:28.394Z,-9.11
2022-12-07T16:17:07.692Z,-9.08
2022-12-07T16:19:42.969Z,-9.15
2022-12-07T16:22:17.586Z,-9.15
2022-12-07T16:24:51.127Z,-9.16
2022-12-07T16:27:24.559Z,-9.10
2022-12-07T16:29:58.026Z,-9.18
2022-12-07T16:32:31.214Z,-9.16
2022-12-07T16:35:04.824Z,-9.17
2022-12-07T16:37:37.937Z,-9.14
2022-12-07T16:40:14.138Z,-9.15
2022-12-07T16:42:48.495Z,-9.19
2022-12-07T16:45:22.965Z,-9.19
2022-12-07T16:47:57.177Z,-9.09
2022-12-07T16:50:34.180Z,-9.19
2022-12-07T16:53:10.864Z,-9.14
2022-12-07T16:55:45.810Z,-9.16
2022-12-07T16:58:20.915Z,-9.24
2022-12-07T17:00:54.661Z,-9.28
2022-12-07T17:03:27.842Z,-9.29
2022-12-07T17:06:01.010Z,-9.17
2022-12-07T17:08:34.190Z,-9.26
2022-12-07T17:11:12.728Z,-9.26
2022-12-07T17:14:04.314Z,-9.21
2022-12-07T17:16:38.390Z,-9.25
2022-12-07T17:19:13.592Z,-9.34
2022-12-07T17:21:47.876Z,-9.33
2022-12-07T17:24:43.298Z,-9.33
2022-12-07T17:27:33.084Z,-9.25
2022-12-07T17:30:10.408Z,-9.30
2022-12-07T17:32:43.628Z,-9.30
2022-12-07T17:35:17.129Z,-9.35
2022-12-07T17:37:51.241Z,-9.34
2022-12-07T17:40:24.453Z,-9.35
2022-12-07T17:42:59.890Z,-9.34
2022-12-07T17:45:33.333Z,-9.27
2022-12-07T17:48:07.601Z,-9.33
2022-12-07T17:51:06.552Z,-9.32
2022-12-07T17:53:50.820Z,-9.33
2022-12-07T17:56:29.219Z,-9.37
2022-12-07T17:59:11.821Z,-9.35
2022-12-07T18:01:46.805Z,-9.36
2022-12-07T18:04:20.419Z,-9.32
2022-12-07T18:06:54.438Z,-9.36
2022-12-07T18:09:30.235Z,-9.33
2022-12-07T18:12:03.269Z,-9.34
2022-12-07T18:14:36.637Z,-9.26
2022-12-07T18:17:10.596Z,-9.32
2022-12-07T18:19:43.665Z,-9.38
2022-12-07T18:22:16.787Z,-9.36
2022-12-07T18:24:51.636Z,-9.28
2022-12-07T18:27:24.833Z,-9.36
2022-12-07T18:29:59.818Z,-9.32
2022-12-07T18:32:34.785Z,-9.32
2022-12-07T18:35:09.742Z,-9.31
2022-12-07T18:37:43.480Z,-9.31
2022-12-07T18:40:17.425Z,-9.34
2022-12-07T18:42:50.798Z,-9.38
2022-12-07T18:45:23.972Z,-9.37
2022-12-07T18:47:57.122Z,-9.36
2022-12-07T18:50:30.475Z,-9.35
2022-12-07T18:53:05.392Z,-9.33
2022-12-07T18:55:41.370Z,-9.36
2022-12-07T18:58:16.519Z,-9.37
2022-12-07T19:00:49.785Z,-9.34
2022-12-07T19:03:22.746Z,-9.36
2022-12-07T19:05:57.887Z,-9.37
2022-12-07T19:08:31.040Z,-9.35
2022-12-07T19:11:06.131Z,-9.30
2022-12-07T19:13:39.416Z,-9.36
2022-12-07T19:16:13.982Z,-9.34
2022-12-07T19:18:51.284Z,-9.33
2022-12-07T19:21:22.151Z,-9.33
2022-12-07T19:23:56.028Z,-9.29
2022-12-07T19:26:29.209Z,-9.27
2022-12-07T19:29:02.533Z,-9.35
2022-12-07T19:31:40.890Z,-9.26
2022-12-07T19:34:16.295Z,-9.21
2022-12-07T19:36:50.012Z,-9.24
2022-12-07T19:39:23.205Z,-9.26
2022-12-07T19:41:56.527Z,-9.22
2022-12-07T19:44:32.476Z,-9.22
2022-12-07T19:47:07.164Z,-9.20
2022-12-07T19:49:40.269Z,-9.19
2022-12-07T19:52:15.257Z,-9.12
2022-12-07T19:54:49.297Z,-9.21
2022-12-07T19:57:22.611Z,-9.23
2022-12-07T19:59:59.793Z,-9.26
2022-12-07T20:02:38.194Z,-9.24
2022-12-07T20:05:14.069Z,-9.24
2022-12-07T20:07:48.344Z,-9.21
2022-12-07T20:10:26.245Z,-9.17
2022-12-07T20:13:17.115Z,-9.11
2022-12-07T20:16:01.739Z,-9.08
2022-12-07T20:18:27.772Z,-9.16
2022-12-07T20:21:01.665Z,-9.18
2022-12-07T20:23:34.897Z,-9.13
2022-12-07T20:26:11.585Z,-9.16
2022-12-07T20:28:46.380Z,-9.15
2022-12-07T20:31:19.945Z,-9.19
2022-12-07T20:33:53.179Z,-9.13
2022-12-07T20:36:30.481Z,-9.16
2022-12-07T20:39:02.796Z,-9.15
2022-12-07T20:41:54.159Z,-9.16
2022-12-07T20:44:27.809Z,-9.10
2022-12-07T20:47:00.902Z,-9.15
2022-12-07T20:49:34.916Z,-9.09
2022-12-07T20:52:08.256Z,-9.07
2022-12-07T20:54:41.402Z,-9.03
2022-12-07T20:57:14.530Z,-9.02
2022-12-07T20:59:47.753Z,-9.01
2022-12-07T21:02:21.140Z,-8.93
2022-12-07T21:04:54.220Z,-8.90
2022-12-07T21:07:27.671Z,-8.90
2022-12-07T21:10:00.834Z,-8.84
2022-12-07T21:12:35.507Z,-8.88
2022-12-07T21:15:10.763Z,-8.88
2022-12-07T21:17:44.031Z,-8.85
2022-12-07T21:20:17.405Z,-8.91
2022-12-07T21:22:50.510Z,-8.98
2022-12-07T21:25:23.675Z,-8.91
2022-12-07T21:27:56.694Z,-8.86
2022-12-07T21:30:40.530Z,-8.87
2022-12-07T21:33:04.724Z,-9.01
2022-12-07T21:35:39.284Z,-9.00
2022-12-07T21:38:12.331Z,-8.98
2022-12-07T21:40:45.439Z,-8.99
2022-12-07T21:43:18.635Z,-9.00
2022-12-07T21:45:53.912Z,-8.90
2022-12-07T21:48:27.020Z,-8.89
2022-12-07T21:51:05.788Z,-9.00
2022-12-07T21:53:39.787Z,-8.92
2022-12-07T21:56:17.608Z,-8.97
2022-12-07T21:58:52.147Z,-9.00
2022-12-07T22:01:27.022Z,-8.95
2022-12-07T22:04:00.267Z,-8.99
2022-12-07T22:06:34.210Z,-8.98
2022-12-07T22:09:08.120Z,-8.93
2022-12-07T22:11:41.212Z,-8.91
2022-12-07T22:14:31.903Z,-8.90
2022-12-07T22:17:05.374Z,-8.94
2022-12-07T22:19:38.326Z,-9.01
2022-12-07T22:22:15.005Z,-8.95
2022-12-07T22:24:48.955Z,-8.94
2022-12-07T22:27:22.018Z,-8.94
2022-12-07T22:29:55.204Z,-8.95
2022-12-07T22:35:03.569Z,-8.98
2022-12-07T22:37:36.930Z,-8.94
2022-12-07T22:40:12.391Z,-8.87
2022-12-07T22:42:45.464Z,-8.87
2022-12-07T22:45:18.969Z,-8.89
2022-12-07T22:47:52.129Z,-8.89
2022-12-07T22:50:25.292Z,-8.86
2022-12-07T22:52:58.335Z,-8.78
2022-12-07T22:55:31.432Z,-8.80
2022-12-07T22:58:06.276Z,-8.83
2022-12-07T23:00:39.395Z,-8.90
2022-12-07T23:03:13.158Z,-8.85
2022-12-07T23:05:47.460Z,-8.85
2022-12-07T23:08:20.650Z,-8.76
2022-12-07T23:10:53.773Z,-8.73
2022-12-07T23:13:33.083Z,-8.65
2022-12-07T23:16:13.089Z,-8.68
2022-12-07T23:18:46.216Z,-8.68
2022-12-07T23:21:19.362Z,-8.64
2022-12-07T23:23:52.343Z,-8.60
2022-12-07T23:26:25.426Z,-8.55
2022-12-07T23:28:58.576Z,-8.51
2022-12-07T23:31:31.711Z,-8.54
2022-12-07T23:34:04.853Z,-8.50
2022-12-07T23:36:38.050Z,-8.47
2022-12-07T23:39:12.373Z,-8.48
2022-12-07T23:41:45.609Z,-8.43
2022-12-07T23:44:18.803Z,-8.40
2022-12-07T23:46:51.873Z,-8.38
2022-12-07T23:49:25.018Z,-8.35
2022-12-07T23:51:58.080Z,-8.37
2022-12-07T23:54:31.316Z,-8.35
2022-12-07T23:57:04.651Z,-8.33
2022-12-07T23:59:38.783Z,-8.23
